Logo AVAMET
Benvolgut visitant, si us plau, ingressa Recuperar contrasenya

Inforatge Pedreguer

Dades diàries. Acumulats / Últims 30 dies disponibles

Data Temperatura (°C) Humitat rel. (%) Pressió rel. (hPa) Vent (km/h) Precipitació
Mínima Mitjana Màxima Amplitud
tèrmica
Mínima Mitjana Màxima Mínima Mitjana Màxima Predom. Mitjana Ràfega
màxima
Total
(mm)
Índex-n
Mínima Mitjana Màxima Mínima Mitjana Màxima n
0 a 1
P0 max
mm 5'
Dades mensuals acumulades fins l'últim dia disponible
06/2019 15,1 17,7 20,6 22,0 21,7 26,4 31,4 16,3 18 65 91 1.008 1.016 1.025   8,0 50,0 0,8
Dades anuals acumulades fins l'últim dia disponible
2019 4,7 12,0 21,3 15,9 10,8 20,2 31,4 26,7 18 64 98 995 1.019 1.037   7,0 74,1 355,8
Últims 30 dies disponibles
25-06-2019 20,6     23,3     26,4 5,8 68 79 90 1.017 1.018 1.020 OSO 9,2 29,6 0,0
24-06-2019 19,8     22,8     25,6 5,8 56 78 88 1.015 1.016 1.017 OSO 8,6 29,6 0,0
23-06-2019 19,2     23,8     29,3 10,1 36 64 88 1.015 1.016 1.017 SSE 5,5 31,5 0,0
22-06-2019 19,7     22,9     27,4 7,7 50 73 89 1.016 1.018 1.019 S 8,0 31,5 0,0
21-06-2019 19,9     21,9     24,9 5,0 68 81 91 1.015 1.016 1.018 OSO 8,2 25,9 0,0
20-06-2019 20,0     22,3     26,2 6,2 43 76 90 1.013 1.014 1.016 SO 7,4 29,6 0,0
19-06-2019 18,4     25,1     31,4 13,0 29 54 79 1.012 1.014 1.016 SSE 6,4 38,9 0,0
18-06-2019 17,7     23,4     28,3 10,6 44 62 83 1.013 1.016 1.018 SSE 9,6 45,0 0,0
17-06-2019 16,4     23,1     28,4 12,0 39 58 82 1.015 1.018 1.021 SSE 9,0 45,0 0,0
16-06-2019 18,4     20,8     23,1 4,7 64 76 84 1.019 1.021 1.023 S 6,4 24,1 0,0
15-06-2019 19,9     23,9     28,1 8,2 30 43 78 1.015 1.017 1.020 S 10,8 37,0 0,0
14-06-2019 17,1     22,5     29,1 12,0 38 59 73 1.011 1.013 1.015 S 8,7 37,0 0,0
13-06-2019 17,6     19,6     21,7 4,1 61 79 91 1.013 1.014 1.016 S 8,3 29,6 0,0
12-06-2019 15,1     19,3     21,9 6,8 51 70 86 1.015 1.016 1.018 SE 7,8 32,2 0,0
11-06-2019 15,7     18,7     22,8 7,1 55 79 90 1.011 1.013 1.017 SSE 6,6 35,4 0,8
10-06-2019 17,7     21,4     25,8 8,1 37 68 91 1.012 1.014 1.016 S 7,7 38,9 0,0
09-06-2019 17,2     21,1     26,8 9,6 36 63 83 1.013 1.017 1.021 SSO 7,3 25,9 0,0
08-06-2019 17,6     19,9     21,7 4,1 51 73 87 1.019 1.022 1.025 SSO 9,4 29,6 0,0
07-06-2019 15,8     22,2     27,4 11,6 38 57 82 1.012 1.015 1.020 SSE 6,2 31,5 0,0
06-06-2019 16,3     20,8     25,3 9,0 54 66 81 1.012 1.014 1.016 SSE 7,0 35,4 0,0
05-06-2019 17,5     22,8     28,2 10,7 18 56 90 1.008 1.010 1.015 SSO 8,8 50,0 0,0
04-06-2019 16,7     22,7     29,4 12,7 36 67 91 1.008 1.013 1.017 S 6,2 42,6 0,0
03-06-2019 16,5     22,4     27,9 11,4 31 53 82 1.015 1.018 1.020 SSE 10,3 46,7 0,0
02-06-2019 15,9     22,3     27,3 11,4 30 40 58 1.018 1.021 1.022 SSE 9,8 37,0 0,0
01-06-2019 15,1     21,5     26,7 11,6 27 41 60 1.021 1.023 1.025 SE 7,7 33,9 0,0
31-05-2019 14,6     20,9     25,2 10,6 38 54 74 1.024 1.025 1.027 SSE 6,0 29,6 0,0
30-05-2019 14,1     19,4     23,9 9,8 45 61 78 1.024 1.026 1.027 SSE 8,7 37,0 0,0
29-05-2019 15,6     18,7     22,8 7,2 32 56 83 1.019 1.022 1.025 SE 6,1 29,6 0,0
28-05-2019 17,1     20,1     23,7 6,6 46 65 87 1.014 1.015 1.019 SE 6,1 29,6 0,0
27-05-2019 15,6     20,9     26,1 10,5 52 68 83 1.011 1.014 1.017 SE 5,9 29,6 0,0
Últims 13 mesos disponibles
05/2019 10,1 15,0 21,3 19,0 19,4 23,5 30,2 20,1 50 67 83 1.006 1.017 1.026 SSE 6,8 68,5 8,6
04/2019 9,8 12,1 13,9 15,5 14,0 19,5 27,9 18,1 40 69 93 1.001 1.014 1.026 S 8,2 66,7 264,0
03/2019 7,9 10,7 16,1 14,9 11,2 19,2 27,4 19,5 37 60 91 1.012 1.024 1.031 SSE 5,9 56,3 77,8
02/2019 6,3 8,9 12,1 12,8 12,2 17,1 22,6 16,3 36 63 84 997 1.026 1.035 S 6,0 74,1 0,0
01/2019 4,7 8,6 13,3 12,0 10,8 16,0 20,9 16,2 40 59 84 1.004 1.020 1.031 S 6,9 66,7 4,6
12/2018 7,1 10,2 14,1 14,0 12,3 18,4 24,1 17,0 51 69 90 1.010 1.026 1.032 SSE 3,7 58,0 37,4
11/2018 8,4 12,6 16,2 15,3 14,4 18,6 24,2 15,8 46 70 93 1.002 1.016 1.025 OSO 5,7 82,0 128,4
10/2018 8,7 15,9 20,1 19,2 14,4 23,0 28,2 19,5 43 71 88 1.001 1.016 1.027 S 5,6 63,0 95,0
09/2018 16,2 21,2 23,6 24,3 24,3 28,1 32,8 16,6 62 78 89 1.014 1.020 1.029 5,2 59,6 53,8
08/2018 20,5 23,5 27,4 27,3 25,7 31,6 37,2 16,7 45 69 83 1.014 1.018 1.023 6,4 50,0 55,8
07/2018 20,9 23,1 25,3 27,2 27,2 31,6 35,7 14,8 39 66 88 1.011 1.016 1.021 7,7 50,0 1,2
06/2018 15,3 19,6 22,4 23,7 23,2 28,2 32,7 17,4 46 62 80 1.011 1.016 1.022 6,8 48,3 32,8
05/2018 9,5 15,2 18,0 19,2 16,8 23,8 28,3 18,8 43 66 82 1.011 1.016 1.019 6,2 46,7 8,4
Tots els anys disponibles
2018 3,8 15,3 27,4 18,9 7,7 23,0 37,2 33,4 37 68 93 999 1.018 1.032 SSE 6,6 82,0 590,6
2017 4,7 12,6 19,2 16,2 11,6 20,3 28,9 24,2 60 60 60 1.015 1.015 1.015 5,3 72,2 56,0
Temperatura (°C)
Humitat relativa (%)
Velocitat del vent i ràfega màxima (km/h)
Direcció del vent (°)
Pressió (hPa)
Precipitació (mm)
Nota sobre les dades: s'avisa a l'usuari de la provisionalitat i no oficialitat d'aquestes dades
Logo AVAMET blanc
Web allotjada a Sollutia
Llicència de Creative CommonsLa web d'AVAMET i els seus continguts estan subjectes a una llicència de
Reconeixement - No Comercial - Compartir igual
Properes estacions: Catadau - Urb. Lloma Molina (Inforatge), Altea - Club Nàutic d'Altea (Soci), Ares del Maestrat (Ajuntament Soci),      - - - - -      Últimes estacions: Ontinyent - El Pilar (Soci), Asp - Poliesportiu (Soci), Jacarilla - centro (MeteOrihuela), Elx - Maitino/Vallverda/Velarde/Matola/Ferriol (Soci TiempoElche.com) - - -